createdAt,value
2022-10-17T00:01:39.314Z,19.92
2022-10-17T00:04:06.217Z,19.15
2022-10-17T00:06:33.077Z,21.98
2022-10-17T00:08:59.915Z,23.45
2022-10-17T00:11:26.769Z,24.42
2022-10-17T00:13:55.936Z,23.00
2022-10-17T00:16:37.590Z,24.17
2022-10-17T00:19:06.228Z,31.62
2022-10-17T00:21:33.171Z,35.42
2022-10-17T00:24:01.024Z,32.95
2022-10-17T00:26:31.007Z,33.45
2022-10-17T00:28:57.905Z,46.67
2022-10-17T00:31:25.534Z,58.38
2022-10-17T00:33:53.087Z,46.58
2022-10-17T00:36:22.431Z,37.47
2022-10-17T00:38:53.458Z,25.58
2022-10-17T00:41:24.177Z,62.17
2022-10-17T00:43:56.542Z,41.42
2022-10-17T00:46:27.978Z,27.08
2022-10-17T00:48:56.621Z,32.35
2022-10-17T00:51:29.987Z,25.40
2022-10-17T00:53:56.941Z,31.77
2022-10-17T00:56:23.799Z,37.78
2022-10-17T00:58:50.737Z,40.95
2022-10-17T01:01:17.638Z,40.15
2022-10-17T01:03:44.672Z,32.67
2022-10-17T01:06:11.510Z,26.90
2022-10-17T01:08:38.584Z,30.65
2022-10-17T01:11:31.126Z,32.72
2022-10-17T01:14:03.960Z,31.10
2022-10-17T01:17:19.750Z,30.05
2022-10-17T01:20:05.437Z,27.98
2022-10-17T01:23:26.303Z,29.52
2022-10-17T01:26:06.203Z,22.67
2022-10-17T01:28:56.147Z,24.02
2022-10-17T01:31:36.539Z,23.20
2022-10-17T01:34:10.027Z,24.58
2022-10-17T01:36:39.585Z,25.75
2022-10-17T01:39:08.994Z,25.45
2022-10-17T01:41:40.552Z,25.25
2022-10-17T01:44:25.299Z,24.55
2022-10-17T01:47:14.228Z,27.45
2022-10-17T01:49:43.615Z,21.80
2022-10-17T01:52:16.024Z,21.92
2022-10-17T01:54:55.964Z,21.58
2022-10-17T01:57:36.582Z,23.95
2022-10-17T02:00:05.597Z,23.00
2022-10-17T02:02:32.900Z,21.35
2022-10-17T02:07:33.947Z,23.98
2022-10-17T02:10:00.763Z,17.62
2022-10-17T02:12:36.718Z,20.70
2022-10-17T02:15:31.456Z,22.37
2022-10-17T02:18:19.577Z,26.35
2022-10-17T02:20:50.000Z,21.90
2022-10-17T02:23:45.966Z,18.37
2022-10-17T02:26:33.955Z,21.58
2022-10-17T02:29:10.048Z,17.85
2022-10-17T02:31:40.766Z,19.52
2022-10-17T02:34:18.860Z,18.92
2022-10-17T02:36:52.724Z,18.40
2022-10-17T02:39:21.219Z,18.05
2022-10-17T02:41:49.944Z,16.60
2022-10-17T02:44:17.170Z,13.85
2022-10-17T02:46:48.957Z,14.98
2022-10-17T02:49:22.835Z,16.17
2022-10-17T02:51:53.259Z,23.00
2022-10-17T02:54:20.117Z,32.15
2022-10-17T02:56:51.780Z,25.62
2022-10-17T02:59:22.257Z,25.33
2022-10-17T03:01:51.660Z,26.05
2022-10-17T03:04:18.851Z,59.15
2022-10-17T03:06:47.462Z,58.20
2022-10-17T03:09:14.642Z,52.38
2022-10-17T03:11:42.150Z,60.35
2022-10-17T03:14:09.099Z,48.05
2022-10-17T03:16:35.992Z,61.95
2022-10-17T03:19:03.287Z,85.53
2022-10-17T03:21:30.168Z,76.62
2022-10-17T03:23:57.010Z,69.75
2022-10-17T03:26:23.895Z,51.40
2022-10-17T03:28:53.621Z,50.47
2022-10-17T03:31:21.839Z,53.87
2022-10-17T03:33:48.748Z,40.30
2022-10-17T03:36:17.377Z,35.95
2022-10-17T03:38:44.710Z,40.85
2022-10-17T03:41:12.091Z,41.90
2022-10-17T03:43:42.482Z,44.58
2022-10-17T03:46:09.413Z,25.52
2022-10-17T03:48:36.409Z,21.48
2022-10-17T03:51:06.089Z,18.27
2022-10-17T03:53:33.309Z,18.42
2022-10-17T03:56:13.029Z,15.65
2022-10-17T03:58:40.663Z,17.30
2022-10-17T04:01:09.425Z,18.55
2022-10-17T04:03:36.739Z,22.73
2022-10-17T04:06:04.933Z,22.10
2022-10-17T04:08:32.020Z,25.98
2022-10-17T04:11:03.072Z,26.12
2022-10-17T04:13:30.039Z,28.17
2022-10-17T04:16:02.691Z,23.35
2022-10-17T04:18:29.545Z,21.27
2022-10-17T04:20:56.909Z,20.50
2022-10-17T04:23:23.906Z,21.42
2022-10-17T04:25:50.758Z,74.15
2022-10-17T04:28:17.658Z,52.70
2022-10-17T04:30:45.574Z,38.00
2022-10-17T04:33:12.618Z,21.95
2022-10-17T04:35:39.497Z,29.58
2022-10-17T04:38:06.347Z,22.83
2022-10-17T04:40:33.301Z,23.65
2022-10-17T04:43:00.329Z,20.23
2022-10-17T04:45:27.194Z,22.95
2022-10-17T04:47:54.019Z,21.83
2022-10-17T04:50:20.913Z,20.90
2022-10-17T04:52:47.766Z,21.95
2022-10-17T04:55:14.592Z,21.90
2022-10-17T04:57:41.410Z,26.20
2022-10-17T05:02:41.407Z,25.77
2022-10-17T05:05:08.662Z,19.55
2022-10-17T05:07:35.509Z,21.02
2022-10-17T05:10:02.407Z,23.70
2022-10-17T05:12:29.404Z,24.87
2022-10-17T05:14:56.458Z,26.08
2022-10-17T05:17:23.319Z,25.37
2022-10-17T05:19:50.179Z,23.42
2022-10-17T05:22:17.061Z,25.02
2022-10-17T05:24:43.923Z,23.60
2022-10-17T05:27:10.765Z,22.52
2022-10-17T05:29:37.710Z,28.17
2022-10-17T05:32:04.634Z,24.95
2022-10-17T05:34:31.460Z,20.80
2022-10-17T05:36:58.307Z,22.55
2022-10-17T05:39:25.140Z,19.27
2022-10-17T05:41:52.629Z,22.95
2022-10-17T05:44:19.512Z,27.60
2022-10-17T05:46:49.227Z,28.23
2022-10-17T05:49:32.245Z,26.85
2022-10-17T05:52:03.700Z,27.70
2022-10-17T05:54:35.388Z,32.05
2022-10-17T05:57:08.221Z,56.72
2022-10-17T05:59:38.554Z,46.40
2022-10-17T06:02:05.936Z,43.55
2022-10-17T06:04:33.010Z,33.83
2022-10-17T06:06:59.867Z,41.13
2022-10-17T06:09:26.829Z,42.03
2022-10-17T06:11:53.635Z,41.00
2022-10-17T06:14:20.529Z,35.53
2022-10-17T06:16:47.449Z,29.33
2022-10-17T06:19:14.346Z,27.02
2022-10-17T06:21:41.733Z,26.08
2022-10-17T06:24:08.630Z,20.52
2022-10-17T06:26:35.449Z,18.17
2022-10-17T06:29:02.562Z,19.75
2022-10-17T06:31:29.536Z,24.17
2022-10-17T06:33:56.617Z,20.83
2022-10-17T06:36:23.463Z,19.77
2022-10-17T06:38:50.344Z,19.17
2022-10-17T06:41:19.459Z,16.17
2022-10-17T06:43:51.456Z,18.27
2022-10-17T06:46:20.098Z,21.52
2022-10-17T06:48:47.003Z,17.75
2022-10-17T06:51:14.114Z,21.60
2022-10-17T06:53:41.183Z,21.05
2022-10-17T06:56:09.107Z,17.60
2022-10-17T06:58:39.260Z,20.00
2022-10-17T07:03:59.557Z,20.60
2022-10-17T07:06:26.615Z,19.62
2022-10-17T07:08:53.526Z,21.42
2022-10-17T07:11:21.738Z,20.08
2022-10-17T07:13:48.748Z,19.80
2022-10-17T07:16:16.322Z,19.30
2022-10-17T07:18:43.480Z,23.15
2022-10-17T07:21:10.690Z,20.25
2022-10-17T07:23:37.937Z,18.62
2022-10-17T07:26:08.546Z,18.52
2022-10-17T07:28:37.474Z,21.25
2022-10-17T07:31:10.217Z,22.73
2022-10-17T07:33:37.342Z,27.37
2022-10-17T07:36:05.652Z,22.50
2022-10-17T07:38:32.483Z,22.55
2022-10-17T07:41:01.276Z,22.17
2022-10-17T07:43:29.026Z,25.15
2022-10-17T07:45:55.991Z,26.12
2022-10-17T07:48:24.301Z,24.73
2022-10-17T07:50:51.276Z,22.17
2022-10-17T07:53:18.723Z,19.58
2022-10-17T07:55:46.651Z,20.48
2022-10-17T07:58:14.328Z,21.55
2022-10-17T08:00:41.327Z,23.35
2022-10-17T08:03:08.673Z,22.95
2022-10-17T08:05:35.534Z,21.90
2022-10-17T08:08:02.426Z,21.92
2022-10-17T08:10:29.892Z,21.10
2022-10-17T08:12:57.635Z,26.02
2022-10-17T08:15:31.704Z,19.95
2022-10-17T08:17:59.703Z,23.10
2022-10-17T08:20:27.007Z,21.50
2022-10-17T08:22:57.160Z,20.35
2022-10-17T08:25:24.331Z,17.73
2022-10-17T08:27:51.457Z,20.62
2022-10-17T08:30:18.454Z,20.02
2022-10-17T08:32:45.382Z,15.88
2022-10-17T08:35:12.555Z,14.40
2022-10-17T08:37:39.409Z,13.75
2022-10-17T08:40:07.037Z,13.85
2022-10-17T08:42:33.816Z,12.68
2022-10-17T08:45:32.421Z,14.85
2022-10-17T08:48:00.796Z,11.45
2022-10-17T08:50:38.436Z,10.90
2022-10-17T08:53:24.739Z,10.73
2022-10-17T08:58:38.837Z,11.75
2022-10-17T09:01:10.378Z,11.45
2022-10-17T09:04:08.891Z,11.88
2022-10-17T09:06:41.993Z,14.00
2022-10-17T09:09:39.747Z,12.60
2022-10-17T09:12:17.345Z,11.85
2022-10-17T09:14:55.366Z,10.25
2022-10-17T09:17:34.768Z,10.43
2022-10-17T09:20:12.869Z,11.07
2022-10-17T09:22:53.238Z,11.07
2022-10-17T09:25:21.121Z,11.57
2022-10-17T09:31:02.302Z,10.65
2022-10-17T09:33:54.349Z,11.10
2022-10-17T09:36:24.642Z,12.32
2022-10-17T09:38:56.648Z,11.18
2022-10-17T09:41:45.489Z,10.55
2022-10-17T09:44:30.897Z,8.90
2022-10-17T09:47:32.086Z,10.73
2022-10-17T09:49:59.272Z,9.80
2022-10-17T09:52:37.176Z,10.80
2022-10-17T09:55:22.955Z,11.40
2022-10-17T09:57:58.573Z,9.95
2022-10-17T10:00:33.189Z,11.23
2022-10-17T10:03:27.990Z,13.57
2022-10-17T10:09:36.843Z,10.57
2022-10-17T10:12:36.048Z,14.05
2022-10-17T10:15:30.741Z,10.85
2022-10-17T10:18:37.802Z,11.93
2022-10-17T10:21:37.393Z,10.82
2022-10-17T10:26:59.856Z,11.60
2022-10-17T10:29:30.947Z,12.07
2022-10-17T10:32:22.356Z,9.43
2022-10-17T10:35:19.129Z,10.65
2022-10-17T10:37:54.197Z,10.77
2022-10-17T10:40:28.182Z,11.23
2022-10-17T10:43:04.910Z,11.70
2022-10-17T10:45:54.104Z,10.02
2022-10-17T10:48:36.681Z,11.80
2022-10-17T10:51:18.163Z,11.50
2022-10-17T10:54:22.710Z,30.42
2022-10-17T10:57:01.002Z,11.35
2022-10-17T10:59:41.667Z,12.57
2022-10-17T11:02:16.236Z,13.38
2022-10-17T11:04:48.866Z,10.52
2022-10-17T11:07:17.847Z,15.13
2022-10-17T11:10:01.104Z,9.95
2022-10-17T11:12:35.146Z,11.70
2022-10-17T11:15:34.447Z,14.65
2022-10-17T11:18:05.108Z,11.68
2022-10-17T11:20:48.325Z,14.05
2022-10-17T11:23:28.684Z,12.63
2022-10-17T11:25:58.283Z,10.50
2022-10-17T11:28:25.774Z,10.75
2022-10-17T11:31:15.782Z,12.45
2022-10-17T11:34:04.276Z,13.77
2022-10-17T11:36:36.820Z,10.07
2022-10-17T11:39:18.557Z,12.60
2022-10-17T11:42:10.854Z,10.18
2022-10-17T11:44:39.990Z,11.77
2022-10-17T11:47:31.005Z,10.52
2022-10-17T11:53:14.111Z,14.73
2022-10-17T11:55:45.866Z,13.62
2022-10-17T11:58:37.444Z,11.30
2022-10-17T12:01:41.260Z,10.90
2022-10-17T12:04:34.725Z,9.63
2022-10-17T12:07:13.699Z,10.73
2022-10-17T12:10:20.168Z,11.40
2022-10-17T12:12:48.321Z,9.85
2022-10-17T12:15:23.493Z,10.30
2022-10-17T12:18:02.486Z,14.07
2022-10-17T12:20:32.324Z,10.77
2022-10-17T12:23:05.009Z,9.95
2022-10-17T12:28:17.383Z,10.85
2022-10-17T12:31:01.470Z,12.05
2022-10-17T12:33:40.277Z,11.70
2022-10-17T12:36:21.288Z,11.27
2022-10-17T12:39:01.753Z,11.93
2022-10-17T12:41:51.835Z,9.52
2022-10-17T12:44:21.535Z,11.10
2022-10-17T12:47:08.099Z,9.75
2022-10-17T12:49:54.359Z,11.20
2022-10-17T12:52:27.548Z,10.40
2022-10-17T12:55:13.784Z,12.65
2022-10-17T12:57:57.331Z,12.23
2022-10-17T13:00:27.461Z,10.85
2022-10-17T13:03:05.098Z,15.15
2022-10-17T13:05:40.917Z,9.60
2022-10-17T13:08:20.208Z,11.00
2022-10-17T13:10:53.893Z,10.25
2022-10-17T13:13:35.924Z,9.82
2022-10-17T13:16:08.881Z,12.35
2022-10-17T13:18:40.528Z,11.27
2022-10-17T13:21:20.585Z,11.00
2022-10-17T13:23:55.927Z,8.40
2022-10-17T13:26:31.868Z,8.95
2022-10-17T13:29:14.027Z,10.57
2022-10-17T13:31:45.004Z,9.00
2022-10-17T13:34:20.172Z,10.93
2022-10-17T13:36:55.119Z,10.20
2022-10-17T13:39:44.941Z,9.23
2022-10-17T13:42:24.520Z,7.47
2022-10-17T13:44:52.517Z,12.00
2022-10-17T13:47:24.053Z,7.70
2022-10-17T13:49:54.433Z,13.13
2022-10-17T13:52:25.571Z,6.80
2022-10-17T13:55:12.481Z,8.63
2022-10-17T13:57:41.118Z,9.75
2022-10-17T14:00:16.314Z,9.30
2022-10-17T14:02:43.286Z,10.43
2022-10-17T14:05:17.222Z,7.80
2022-10-17T14:10:38.218Z,13.02
2022-10-17T14:13:08.311Z,8.30
2022-10-17T14:15:36.751Z,10.18
2022-10-17T14:18:08.313Z,13.43
2022-10-17T14:23:41.920Z,11.75
2022-10-17T14:26:21.529Z,10.82
2022-10-17T14:29:10.682Z,10.23
2022-10-17T14:31:37.644Z,9.32
2022-10-17T14:34:05.473Z,8.18
2022-10-17T14:36:38.265Z,9.23
2022-10-17T14:39:13.384Z,8.40
2022-10-17T14:41:45.700Z,10.27
2022-10-17T14:44:35.909Z,13.60
2022-10-17T14:47:30.871Z,11.52
2022-10-17T14:50:07.406Z,10.13
2022-10-17T14:52:35.441Z,8.50
2022-10-17T14:55:26.567Z,8.43
2022-10-17T14:57:53.408Z,8.70
2022-10-17T15:00:22.134Z,7.68
2022-10-17T15:02:50.359Z,10.70
2022-10-17T15:05:17.725Z,11.43
2022-10-17T15:07:44.583Z,9.65
2022-10-17T15:10:24.944Z,9.30
2022-10-17T15:12:57.472Z,7.25
2022-10-17T15:15:32.092Z,8.93
2022-10-17T15:17:58.939Z,9.75
2022-10-17T15:20:28.115Z,7.78
2022-10-17T15:22:55.563Z,7.35
2022-10-17T15:25:24.194Z,11.65
2022-10-17T15:27:51.344Z,11.23
2022-10-17T15:30:22.603Z,15.38
2022-10-17T15:32:50.023Z,10.85
2022-10-17T15:35:17.537Z,12.80
2022-10-17T15:37:46.904Z,12.45
2022-10-17T15:40:24.187Z,13.25
2022-10-17T15:42:51.414Z,11.27
2022-10-17T15:45:21.845Z,14.32
2022-10-17T15:47:53.390Z,13.07
2022-10-17T15:50:21.897Z,13.55
2022-10-17T15:52:51.205Z,14.85
2022-10-17T15:55:18.638Z,18.95
2022-10-17T15:57:46.941Z,19.48
2022-10-17T16:00:17.810Z,23.45
2022-10-17T16:02:45.526Z,21.73
2022-10-17T16:05:18.093Z,22.33
2022-10-17T16:07:46.895Z,20.35
2022-10-17T16:10:14.538Z,23.42
2022-10-17T16:12:41.608Z,25.20
2022-10-17T16:15:14.542Z,28.92
2022-10-17T16:17:41.683Z,33.80
2022-10-17T16:20:08.839Z,53.15
2022-10-17T16:22:36.888Z,85.03
2022-10-17T16:25:11.861Z,82.90
2022-10-17T16:27:39.294Z,73.28
2022-10-17T16:30:07.887Z,72.00
2022-10-17T16:32:34.797Z,54.53
2022-10-17T16:35:01.777Z,48.63
2022-10-17T16:37:28.598Z,48.00
2022-10-17T16:39:55.475Z,59.10
2022-10-17T16:42:23.139Z,77.68
2022-10-17T16:44:50.770Z,73.85
2022-10-17T16:47:18.609Z,76.20
2022-10-17T16:49:45.678Z,69.50
2022-10-17T16:52:12.762Z,70.47
2022-10-17T16:54:39.614Z,71.75
2022-10-17T16:57:06.463Z,80.82
2022-10-17T16:59:33.374Z,77.00
2022-10-17T17:02:00.207Z,78.80
2022-10-17T17:04:27.025Z,74.43
2022-10-17T17:06:53.872Z,67.50
2022-10-17T17:09:20.707Z,78.30
2022-10-17T17:11:47.689Z,79.93
2022-10-17T17:14:14.543Z,76.57
2022-10-17T17:16:41.416Z,71.00
2022-10-17T17:19:11.513Z,67.05
2022-10-17T17:21:38.603Z,69.12
2022-10-17T17:24:06.006Z,73.55
2022-10-17T17:26:37.098Z,46.75
2022-10-17T17:29:04.142Z,80.28
2022-10-17T17:31:33.153Z,118.05
2022-10-17T17:34:00.511Z,117.03
2022-10-17T17:36:32.527Z,83.93
2022-10-17T17:39:01.236Z,57.22
2022-10-17T17:41:28.718Z,34.58
2022-10-17T17:43:56.068Z,34.42
2022-10-17T17:46:24.086Z,20.58
2022-10-17T17:48:51.768Z,23.90
2022-10-17T17:51:25.593Z,29.35
2022-10-17T17:53:56.398Z,23.98
2022-10-17T17:56:28.580Z,36.55
2022-10-17T17:58:58.679Z,50.80
2022-10-17T18:01:27.640Z,19.35
2022-10-17T18:03:55.607Z,33.58
2022-10-17T18:06:23.249Z,41.37
2022-10-17T18:08:55.451Z,33.80
2022-10-17T18:11:22.398Z,32.28
2022-10-17T18:13:54.772Z,32.50
2022-10-17T18:16:21.779Z,27.77
2022-10-17T18:18:48.681Z,25.27
2022-10-17T18:21:15.567Z,29.92
2022-10-17T18:23:45.141Z,30.25
2022-10-17T18:26:12.649Z,29.98
2022-10-17T18:31:09.973Z,33.35
2022-10-17T18:33:36.888Z,28.92
2022-10-17T18:36:09.540Z,31.25
2022-10-17T18:38:36.390Z,44.65
2022-10-17T18:41:23.093Z,34.38
2022-10-17T18:43:50.907Z,36.80
2022-10-17T18:46:22.355Z,34.67
2022-10-17T18:48:50.243Z,29.45
2022-10-17T18:51:23.457Z,30.60
2022-10-17T18:53:52.601Z,38.92
2022-10-17T18:56:20.566Z,30.10
2022-10-17T18:58:47.781Z,22.75
2022-10-17T19:01:18.205Z,27.80
2022-10-17T19:03:47.014Z,24.25
2022-10-17T19:06:17.084Z,19.52
2022-10-17T19:08:44.633Z,20.92
2022-10-17T19:11:18.737Z,22.37
2022-10-17T19:16:23.132Z,28.08
2022-10-17T19:18:54.347Z,24.08
2022-10-17T19:21:22.369Z,28.62
2022-10-17T19:23:57.767Z,32.38
2022-10-17T19:26:26.382Z,35.45
2022-10-17T19:28:53.972Z,40.97
2022-10-17T19:31:26.417Z,57.15
2022-10-17T19:33:54.857Z,49.67
2022-10-17T19:36:27.480Z,50.05
2022-10-17T19:38:58.239Z,33.15
2022-10-17T19:41:25.322Z,24.12
2022-10-17T19:43:52.214Z,23.80
2022-10-17T19:46:23.230Z,20.58
2022-10-17T19:48:51.177Z,22.00
2022-10-17T19:51:19.713Z,21.60
2022-10-17T19:53:47.173Z,19.25
2022-10-17T19:56:14.211Z,20.37
2022-10-17T19:58:45.450Z,35.22
2022-10-17T20:01:15.144Z,20.55
2022-10-17T20:03:42.106Z,17.25
2022-10-17T20:06:09.181Z,17.98
2022-10-17T20:08:37.074Z,18.77
2022-10-17T20:11:09.819Z,20.25
2022-10-17T20:13:37.518Z,21.42
2022-10-17T20:16:05.348Z,20.88
2022-10-17T20:18:32.624Z,20.30
2022-10-17T20:21:08.776Z,16.55
2022-10-17T20:23:35.802Z,17.70
2022-10-17T20:26:25.490Z,19.67
2022-10-17T20:28:53.761Z,21.67
2022-10-17T20:31:21.213Z,19.90
2022-10-17T20:33:48.169Z,15.68
2022-10-17T20:36:15.179Z,20.35
2022-10-17T20:38:42.001Z,17.70
2022-10-17T20:41:10.002Z,21.73
2022-10-17T20:43:37.430Z,16.92
2022-10-17T20:46:16.966Z,18.60
2022-10-17T20:48:54.147Z,16.27
2022-10-17T20:51:21.446Z,17.90
2022-10-17T20:53:48.823Z,17.95
2022-10-17T20:56:26.840Z,16.77
2022-10-17T20:58:58.582Z,14.07
2022-10-17T21:01:26.359Z,17.12
2022-10-17T21:03:53.817Z,16.17
2022-10-17T21:06:21.551Z,17.58
2022-10-17T21:08:49.151Z,16.62
2022-10-17T21:11:16.861Z,16.17
2022-10-17T21:13:44.239Z,15.00
2022-10-17T21:16:16.507Z,17.02
2022-10-17T21:18:43.687Z,17.65
2022-10-17T21:21:13.465Z,19.62
2022-10-17T21:23:41.546Z,14.85
2022-10-17T21:26:09.956Z,15.15
2022-10-17T21:28:37.766Z,16.77
2022-10-17T21:31:14.008Z,16.15
2022-10-17T21:33:41.765Z,16.95
2022-10-17T21:36:09.298Z,13.93
2022-10-17T21:38:37.737Z,14.57
2022-10-17T21:41:06.027Z,13.07
2022-10-17T21:43:33.622Z,11.52
2022-10-17T21:46:12.529Z,13.07
2022-10-17T21:48:39.812Z,13.93
2022-10-17T21:51:10.965Z,13.00
2022-10-17T21:53:38.077Z,17.45
2022-10-17T21:56:11.323Z,14.73
2022-10-17T21:58:38.340Z,15.98
2022-10-17T22:01:20.970Z,17.62
2022-10-17T22:03:50.290Z,14.07
2022-10-17T22:09:09.251Z,16.55
2022-10-17T22:11:36.534Z,12.82
2022-10-17T22:14:08.690Z,13.80
2022-10-17T22:16:35.686Z,15.63
2022-10-17T22:19:06.407Z,14.68
2022-10-17T22:21:35.489Z,15.52
2022-10-17T22:24:05.635Z,18.17
2022-10-17T22:26:34.241Z,15.30
2022-10-17T22:29:01.281Z,14.10
2022-10-17T22:31:28.175Z,13.52
2022-10-17T22:33:55.024Z,16.87
2022-10-17T22:36:21.855Z,15.68
2022-10-17T22:38:48.860Z,15.95
2022-10-17T22:41:15.826Z,15.75
2022-10-17T22:43:42.795Z,19.98
2022-10-17T22:46:13.056Z,23.45
2022-10-17T22:48:40.169Z,27.02
2022-10-17T22:51:07.209Z,29.33
2022-10-17T22:53:35.267Z,26.25
2022-10-17T22:56:08.399Z,20.65
2022-10-17T22:58:35.794Z,15.85
2022-10-17T23:01:03.742Z,16.65
2022-10-17T23:03:31.511Z,14.40
2022-10-17T23:05:58.633Z,17.40
2022-10-17T23:08:25.904Z,14.55
2022-10-17T23:10:53.167Z,16.75
2022-10-17T23:13:21.428Z,14.65
2022-10-17T23:15:53.039Z,14.07
2022-10-17T23:18:20.814Z,15.00
2022-10-17T23:20:48.147Z,13.18
2022-10-17T23:23:15.500Z,14.15
2022-10-17T23:25:42.885Z,13.55
2022-10-17T23:28:09.969Z,16.35
2022-10-17T23:30:37.533Z,17.95
2022-10-17T23:33:05.164Z,15.57
2022-10-17T23:35:32.531Z,16.80
2022-10-17T23:37:59.385Z,15.63
2022-10-17T23:40:26.441Z,16.33
2022-10-17T23:42:53.303Z,20.37
2022-10-17T23:45:20.266Z,18.42
2022-10-17T23:47:47.231Z,19.85
2022-10-17T23:50:14.074Z,15.80
2022-10-17T23:52:40.906Z,17.52
2022-10-17T23:55:08.602Z,14.63
2022-10-17T23:57:35.455Z,15.75
